Time;durP1;ratioP1;P1;durP2;ratioP2;P2;SDS_P1;SDS_P2;PMS_P1;PMS_P2;Temp;Humidity;BMP_temperature;BMP_pressure;BME280_temperature;BME280_humidity;BME280_pressure;Samples;Min_cycle;Max_cycle;Signal;HPM_P1;HPM_P2
2022/06/02 00:02:49;;;;;;;7.50;6.70;;;9.20;88.90;;;;;;5054681;28;20172;-91
2022/06/02 00:05:28;;;;;;;10.87;6.43;;;9.20;88.80;;;;;;5054842;28;20229;-90
2022/06/02 00:08:02;;;;;;;7.77;6.53;;;9.20;88.80;;;;;;5054269;28;20202;-89
2022/06/02 00:11:06;;;;;;;9.10;7.67;;;9.10;88.80;;;;;;5053554;28;20179;-89
2022/06/02 00:13:54;;;;;;;9.50;7.03;;;9.10;89.10;;;;;;5053423;28;20266;-90
2022/06/02 00:16:27;;;;;;;9.23;7.50;;;9.10;89.30;;;;;;5053367;28;20249;-89
2022/06/02 00:19:07;;;;;;;8.67;7.83;;;9.10;89.30;;;;;;5053312;28;20230;-89
2022/06/02 00:21:50;;;;;;;7.70;7.00;;;9.00;89.30;;;;;;5053840;28;20168;-89
2022/06/02 00:24:39;;;;;;;12.70;7.63;;;9.00;89.40;;;;;;5053589;28;20206;-90
2022/06/02 00:27:24;;;;;;;8.90;7.97;;;9.00;89.60;;;;;;5054439;28;20206;-91
2022/06/02 00:30:11;;;;;;;8.83;6.70;;;8.90;89.60;;;;;;5055346;28;20194;-90
2022/06/02 00:32:52;;;;;;;10.37;6.67;;;8.90;89.80;;;;;;5055883;28;20164;-91
2022/06/02 00:36:01;;;;;;;8.47;7.43;;;8.90;89.80;;;;;;5054249;28;20168;-91
2022/06/02 00:38:36;;;;;;;11.50;7.77;;;8.90;89.80;;;;;;5016690;28;20225;-91
2022/06/02 00:41:29;;;;;;;10.33;8.43;;;8.80;89.70;;;;;;5057478;28;20192;-90
2022/06/02 00:44:03;;;;;;;9.77;8.83;;;8.70;89.90;;;;;;5055992;28;20179;-91
2022/06/02 00:46:36;;;;;;;18.47;13.70;;;8.70;89.90;;;;;;5059576;28;20218;-89
2022/06/02 00:49:24;;;;;;;12.77;10.90;;;8.70;90.20;;;;;;5058252;28;20529;-90
2022/06/02 00:52:11;;;;;;;11.83;10.07;;;8.60;90.50;;;;;;5053485;28;20168;-90
2022/06/02 00:57:43;;;;;;;10.47;9.57;;;8.60;90.60;;;;;;5056067;28;20197;-90
2022/06/02 01:00:19;;;;;;;11.57;10.30;;;8.60;90.90;;;;;;5055452;28;20258;-89
2022/06/02 01:03:04;;;;;;;13.67;11.10;;;8.60;91.10;;;;;;5054219;28;20183;-89
2022/06/02 01:05:45;;;;;;;11.50;10.33;;;8.60;91.10;;;;;;5055419;28;20164;-90
2022/06/02 01:08:30;;;;;;;12.93;10.53;;;8.50;91.20;;;;;;5054703;28;20160;-90
2022/06/02 01:11:18;;;;;;;14.33;10.50;;;8.50;91.20;;;;;;5055469;28;20160;-90
2022/06/02 01:14:08;;;;;;;11.30;9.73;;;8.40;91.30;;;;;;5053532;28;20168;-90
2022/06/02 01:17:03;;;;;;;12.33;11.03;;;8.50;91.30;;;;;;5054653;28;20283;-91
2022/06/02 01:19:52;;;;;;;13.83;11.23;;;8.50;91.40;;;;;;5054054;28;20661;-91
2022/06/02 01:22:49;;;;;;;13.30;11.50;;;8.50;91.50;;;;;;5053971;28;20293;-91
2022/06/02 01:25:30;;;;;;;12.73;10.90;;;8.40;91.50;;;;;;5054075;28;20549;-90
2022/06/02 01:28:31;;;;;;;17.07;11.23;;;8.40;91.50;;;;;;5053577;28;20203;-90
2022/06/02 01:31:22;;;;;;;11.77;10.43;;;8.40;91.50;;;;;;5029945;28;20183;-90
2022/06/02 01:33:59;;;;;;;12.87;11.40;;;8.40;91.50;;;;;;5053880;28;20183;-91
2022/06/02 01:36:44;;;;;;;13.43;11.23;;;8.40;91.60;;;;;;5053994;28;20681;-91
2022/06/02 01:39:18;;;;;;;12.47;11.27;;;8.30;91.70;;;;;;5055462;28;20587;-90
2022/06/02 01:41:50;;;;;;;13.20;11.20;;;8.30;91.80;;;;;;5054377;28;20175;-90
2022/06/02 01:44:45;;;;;;;13.73;10.60;;;8.40;91.80;;;;;;5054482;28;20178;-90
2022/06/02 01:47:35;;;;;;;14.97;10.77;;;8.40;91.80;;;;;;5055499;28;20674;-90
2022/06/02 01:50:13;;;;;;;13.63;10.97;;;8.40;91.80;;;;;;5053962;28;20191;-91
2022/06/02 01:52:54;;;;;;;14.87;11.30;;;8.40;91.80;;;;;;5053525;28;20164;-91
2022/06/02 01:55:51;;;;;;;12.50;11.27;;;8.40;91.80;;;;;;5053391;28;20210;-90
2022/06/02 01:58:56;;;;;;;12.93;11.53;;;8.40;91.90;;;;;;5055446;28;20164;-90
2022/06/02 02:01:24;;;;;;;12.50;11.20;;;8.40;92.00;;;;;;5053765;28;20262;-90
2022/06/02 02:04:13;;;;;;;13.53;11.50;;;8.40;92.10;;;;;;5053400;28;20180;-90
2022/06/02 02:07:00;;;;;;;17.03;11.63;;;8.50;92.10;;;;;;5054611;28;20200;-90
2022/06/02 02:10:00;;;;;;;17.03;12.00;;;8.50;92.10;;;;;;5053712;28;20164;-90
2022/06/02 02:12:34;;;;;;;15.77;11.00;;;8.50;92.10;;;;;;5053619;28;20165;-91
2022/06/02 02:15:16;;;;;;;13.13;11.60;;;8.50;92.00;;;;;;5054035;28;20644;-91
2022/06/02 02:18:01;;;;;;;13.83;12.43;;;8.50;92.00;;;;;;5054191;28;20210;-90
2022/06/02 02:20:30;;;;;;;14.90;13.17;;;8.60;92.00;;;;;;5053525;28;20211;-90
2022/06/02 02:23:07;;;;;;;15.40;12.63;;;8.60;92.00;;;;;;5053139;28;20208;-90
2022/06/02 02:25:49;;;;;;;15.10;13.70;;;8.50;92.00;;;;;;5055981;28;20274;-90
2022/06/02 02:28:25;;;;;;;19.73;13.50;;;8.50;92.00;;;;;;5056893;28;20175;-92
2022/06/02 02:31:09;;;;;;;15.93;13.93;;;8.50;92.00;;;;;;5057197;28;20198;-90
2022/06/02 02:33:52;;;;;;;14.83;13.30;;;8.50;92.10;;;;;;5056911;28;20640;-90
2022/06/02 02:36:25;;;;;;;18.50;13.43;;;8.50;92.10;;;;;;5058080;28;20196;-90
2022/06/02 02:39:42;;;;;;;20.33;15.40;;;8.60;92.20;;;;;;5056848;28;20175;-90
2022/06/02 02:42:39;;;;;;;18.13;15.63;;;8.60;92.10;;;;;;5024068;28;20701;-89
2022/06/02 02:45:06;;;;;;;17.37;14.57;;;8.50;92.10;;;;;;5056210;28;20168;-91
2022/06/02 02:47:39;;;;;;;16.63;13.17;;;8.50;92.00;;;;;;5058369;28;20625;-90
2022/06/02 02:50:07;;;;;;;18.03;14.43;;;8.60;92.00;;;;;;5056855;28;20178;-91
2022/06/02 02:52:43;;;;;;;18.50;13.97;;;8.60;92.00;;;;;;5056374;28;20164;-90
2022/06/02 02:55:20;;;;;;;19.83;14.23;;;8.60;92.00;;;;;;5064697;28;20171;-90
2022/06/02 02:58:10;;;;;;;21.43;15.37;;;8.50;92.00;;;;;;5057057;28;20253;-91
2022/06/02 03:00:43;;;;;;;20.80;13.97;;;8.60;92.00;;;;;;5056378;28;20188;-91
2022/06/02 03:03:20;;;;;;;16.07;14.37;;;8.60;92.00;;;;;;5056247;28;20164;-90
2022/06/02 03:06:23;;;;;;;16.73;14.67;;;8.60;92.00;;;;;;5055930;28;20194;-91
2022/06/02 03:09:08;;;;;;;16.97;14.60;;;8.60;92.00;;;;;;5057385;28;20144;-90
2022/06/02 03:11:33;;;;;;;19.77;14.47;;;8.60;92.00;;;;;;5056378;28;20263;-90
2022/06/02 03:14:10;;;;;;;21.13;16.07;;;8.70;92.00;;;;;;5056066;28;20658;-91
2022/06/02 03:16:38;;;;;;;20.80;17.10;;;8.80;92.10;;;;;;5055900;28;20563;-91
2022/06/02 03:19:26;;;;;;;21.43;15.20;;;8.90;92.20;;;;;;5056686;28;20187;-91
2022/06/02 03:21:55;;;;;;;17.73;14.90;;;9.10;92.00;;;;;;5056985;28;20644;-91
2022/06/02 03:24:52;;;;;;;20.53;14.80;;;9.10;91.50;;;;;;5057181;28;20167;-91
2022/06/02 03:27:45;;;;;;;24.90;16.00;;;9.00;91.30;;;;;;5055105;28;20260;-90
2022/06/02 03:30:39;;;;;;;18.00;15.77;;;9.00;91.50;;;;;;5037377;28;20183;-90
2022/06/02 03:33:32;;;;;;;19.67;16.87;;;9.10;91.60;;;;;;5055081;28;20230;-90
2022/06/02 03:36:16;;;;;;;21.67;18.00;;;9.20;91.70;;;;;;5054557;28;20226;-91
2022/06/02 03:38:58;;;;;;;29.33;19.37;;;9.20;91.80;;;;;;5056949;28;20572;-91
2022/06/02 03:41:48;;;;;;;29.03;19.80;;;9.30;92.00;;;;;;5055969;28;20239;-91
2022/06/02 03:45:02;;;;;;;26.77;20.10;;;9.30;92.10;;;;;;5054708;28;20221;-90
2022/06/02 03:48:02;;;;;;;22.40;19.50;;;9.30;92.10;;;;;;4998064;28;20758;-90
2022/06/02 03:50:53;;;;;;;26.53;20.60;;;9.30;92.30;;;;;;5054961;28;20255;-90
2022/06/02 03:53:52;;;;;;;23.60;19.83;;;9.30;92.30;;;;;;5056102;28;20164;-90
2022/06/02 03:56:35;;;;;;;23.63;18.83;;;9.30;92.40;;;;;;5055429;28;20200;-91
2022/06/02 03:59:28;;;;;;;24.53;18.13;;;9.40;92.40;;;;;;5056201;28;20177;-91
2022/06/02 04:02:07;;;;;;;24.73;20.03;;;9.40;92.20;;;;;;5054080;28;20172;-90
2022/06/02 04:04:48;;;;;;;25.50;21.07;;;9.50;92.30;;;;;;5054905;28;20261;-90
2022/06/02 04:08:01;;;;;;;27.13;21.53;;;9.50;92.30;;;;;;5055510;28;20195;-91
2022/06/02 04:10:37;;;;;;;29.07;19.60;;;9.50;92.30;;;;;;5055655;28;20677;-90
2022/06/02 04:13:40;;;;;;;26.57;18.73;;;9.50;92.30;;;;;;5054144;28;20178;-90
2022/06/02 04:16:24;;;;;;;23.37;18.53;;;9.60;92.20;;;;;;5053980;28;20296;-90
2022/06/02 04:22:08;;;;;;;21.83;18.87;;;9.60;91.80;;;;;;5055546;28;20198;-89
2022/06/02 04:25:03;;;;;;;20.90;16.27;;;9.60;91.80;;;;;;5054269;28;20666;-91
2022/06/02 04:27:52;;;;;;;25.17;18.17;;;9.60;91.60;;;;;;5040454;28;20208;-90
2022/06/02 04:30:41;;;;;;;20.67;17.17;;;9.60;91.60;;;;;;5053969;28;20260;-90
2022/06/02 04:33:32;;;;;;;21.50;17.97;;;9.60;91.60;;;;;;5053740;28;20218;-90
2022/06/02 04:36:19;;;;;;;21.83;17.97;;;9.70;91.60;;;;;;5053039;28;20183;-89
2022/06/02 04:39:07;;;;;;;24.17;19.37;;;9.70;91.50;;;;;;5053471;28;20552;-89
2022/06/02 04:41:39;;;;;;;21.20;17.60;;;9.70;91.50;;;;;;5054329;28;20210;-89
2022/06/02 04:44:20;;;;;;;21.67;17.50;;;9.70;91.50;;;;;;5054150;28;20685;-90
2022/06/02 04:47:09;;;;;;;19.70;16.70;;;9.80;91.50;;;;;;5054657;28;20253;-91
2022/06/02 04:49:42;;;;;;;22.03;16.80;;;9.70;91.40;;;;;;5054905;28;20168;-91
2022/06/02 04:52:17;;;;;;;21.33;16.80;;;9.70;91.60;;;;;;5053431;28;20178;-90
2022/06/02 04:55:04;;;;;;;21.07;17.73;;;9.70;91.60;;;;;;5055192;28;20168;-91
2022/06/02 04:57:44;;;;;;;26.53;18.87;;;9.80;91.60;;;;;;5053028;28;20727;-90
2022/06/02 05:00:12;;;;;;;21.23;16.17;;;9.80;91.60;;;;;;5053156;28;20230;-90
2022/06/02 05:02:58;;;;;;;22.27;18.53;;;9.90;91.60;;;;;;5053644;28;20172;-90
2022/06/02 05:05:50;;;;;;;21.30;15.37;;;9.90;91.50;;;;;;5054400;28;20156;-90
2022/06/02 05:08:51;;;;;;;21.20;14.77;;;9.90;91.40;;;;;;5054348;28;20516;-90
2022/06/02 05:11:35;;;;;;;17.73;15.33;;;9.80;91.30;;;;;;5030079;28;20542;-90
2022/06/02 05:14:34;;;;;;;17.77;12.63;;;9.90;91.30;;;;;;5053699;28;20584;-90
2022/06/02 05:17:38;;;;;;;18.07;13.87;;;9.90;91.10;;;;;;5055117;28;20562;-91
2022/06/02 05:20:20;;;;;;;15.90;14.30;;;9.90;91.00;;;;;;5055318;28;20275;-91
2022/06/02 05:23:21;;;;;;;16.93;12.90;;;9.90;91.00;;;;;;5053168;28;20160;-90
2022/06/02 05:26:04;;;;;;;18.40;12.30;;;9.90;90.90;;;;;;5020213;28;20180;-90
2022/06/02 05:29:07;;;;;;;14.97;12.63;;;9.90;90.90;;;;;;5053133;28;20167;-91
2022/06/02 05:31:59;;;;;;;17.33;12.40;;;9.90;90.90;;;;;;5052768;28;20172;-90
2022/06/02 05:35:05;;;;;;;16.17;12.50;;;10.00;90.90;;;;;;5053872;28;20164;-90
2022/06/02 05:38:00;;;;;;;18.20;14.00;;;10.00;91.00;;;;;;5054117;28;20199;-91
2022/06/02 05:40:39;;;;;;;14.70;12.90;;;10.20;91.10;;;;;;5053179;28;20199;-90
2022/06/02 05:43:25;;;;;;;16.70;11.03;;;10.20;91.20;;;;;;5053598;28;20168;-90
2022/06/02 05:45:51;;;;;;;12.27;10.40;;;10.30;91.00;;;;;;5053984;28;20638;-90
2022/06/02 05:48:45;;;;;;;12.23;10.00;;;10.30;90.70;;;;;;5052783;28;20188;-92
2022/06/02 05:51:24;;;;;;;13.47;10.30;;;10.40;90.60;;;;;;5053530;28;20179;-90
2022/06/02 05:53:59;;;;;;;16.50;10.67;;;10.50;90.70;;;;;;5057945;28;20171;-92
2022/06/02 05:56:57;;;;;;;12.93;9.67;;;10.50;90.40;;;;;;5063189;28;20194;-93
2022/06/02 05:59:44;;;;;;;12.27;9.90;;;10.50;90.40;;;;;;5064914;28;20215;-93
2022/06/02 06:02:48;;;;;;;11.40;8.40;;;10.60;89.90;;;;;;5067874;28;20267;-92
2022/06/02 06:05:20;;;;;;;8.73;7.73;;;10.70;89.90;;;;;;4992111;28;20182;-92
2022/06/02 06:08:23;;;;;;;9.20;8.23;;;10.70;89.70;;;;;;4988928;28;20249;-93
2022/06/02 06:11:13;;;;;;;12.30;8.37;;;10.70;89.60;;;;;;5015670;28;20187;-91
2022/06/02 06:14:17;;;;;;;9.20;8.30;;;10.70;89.70;;;;;;5064801;28;20250;-93
2022/06/02 06:17:04;;;;;;;8.20;6.17;;;10.70;89.70;;;;;;5020699;28;20203;-90
2022/06/02 06:19:48;;;;;;;12.87;7.37;;;10.70;89.50;;;;;;5056360;28;20203;-91
2022/06/02 06:22:28;;;;;;;10.43;8.03;;;10.70;89.50;;;;;;5055905;28;20222;-90
2022/06/02 06:25:36;;;;;;;11.00;8.43;;;10.70;89.60;;;;;;5056446;28;20187;-90
2022/06/02 06:28:19;;;;;;;11.13;8.03;;;10.80;89.50;;;;;;5056129;28;20674;-91
2022/06/02 06:31:03;;;;;;;10.13;8.10;;;10.80;89.60;;;;;;5059267;28;20266;-91
2022/06/02 06:33:57;;;;;;;13.10;8.67;;;10.90;89.80;;;;;;5058788;28;20640;-90
2022/06/02 06:36:43;;;;;;;10.77;8.23;;;10.90;89.90;;;;;;5057168;28;20650;-91
2022/06/02 06:39:21;;;;;;;11.57;8.00;;;10.80;89.70;;;;;;5056277;28;20535;-91
2022/06/02 06:42:11;;;;;;;11.73;8.00;;;10.90;89.70;;;;;;5054783;28;20198;-91
2022/06/02 06:45:03;;;;;;;10.13;7.87;;;11.00;89.80;;;;;;5054645;28;20176;-91
2022/06/02 06:47:42;;;;;;;9.57;7.13;;;11.00;89.70;;;;;;5054736;28;20298;-90
2022/06/02 06:50:26;;;;;;;13.73;8.27;;;11.10;89.50;;;;;;5054712;28;20192;-91
2022/06/02 06:53:10;;;;;;;11.80;6.80;;;11.10;89.40;;;;;;5054580;28;20287;-90
2022/06/02 06:55:44;;;;;;;7.43;6.37;;;11.20;89.40;;;;;;5054623;28;20191;-92
2022/06/02 06:58:47;;;;;;;10.63;7.17;;;11.20;89.20;;;;;;5054408;28;20251;-91
2022/06/02 07:01:25;;;;;;;12.53;7.83;;;11.30;89.70;;;;;;5054268;28;20204;-91
2022/06/02 07:04:15;;;;;;;7.70;6.90;;;11.20;89.20;;;;;;5055445;28;20190;-91
2022/06/02 07:06:57;;;;;;;7.90;6.67;;;11.30;89.30;;;;;;5055416;28;20246;-90
2022/06/02 07:10:19;;;;;;;11.33;6.30;;;11.40;89.40;;;;;;5054471;28;20215;-91
2022/06/02 07:13:18;;;;;;;11.23;6.43;;;11.50;89.70;;;;;;4977160;28;20650;-90
2022/06/02 07:16:03;;;;;;;11.90;6.53;;;11.30;89.60;;;;;;4977842;28;20546;-89
2022/06/02 07:18:55;;;;;;;7.33;5.93;;;11.30;89.80;;;;;;5040085;28;20226;-91
2022/06/02 07:21:39;;;;;;;13.90;6.93;;;11.30;90.10;;;;;;5055285;28;20603;-90
2022/06/02 07:24:23;;;;;;;13.37;6.90;;;11.30;90.00;;;;;;5055163;28;20270;-90
2022/06/02 07:27:22;;;;;;;8.40;6.53;;;11.40;90.20;;;;;;5053930;28;20202;-90
2022/06/02 07:29:59;;;;;;;12.33;7.37;;;11.40;90.20;;;;;;5058579;28;20168;-91
2022/06/02 07:33:02;;;;;;;8.73;6.03;;;11.40;90.10;;;;;;5058878;28;20261;-92
2022/06/02 07:35:54;;;;;;;8.30;6.37;;;11.40;89.90;;;;;;5054723;28;20186;-91
2022/06/02 07:38:22;;;;;;;9.53;6.00;;;11.50;89.90;;;;;;5054871;28;20651;-92
2022/06/02 07:40:51;;;;;;;18.97;9.67;;;11.50;89.90;;;;;;5054045;28;20206;-92
2022/06/02 07:43:35;;;;;;;9.67;6.30;;;11.50;90.00;;;;;;5054030;28;20260;-93
2022/06/02 07:46:12;;;;;;;7.77;5.83;;;11.60;90.20;;;;;;5054395;28;20689;-92
2022/06/02 07:48:50;;;;;;;8.70;5.03;;;11.50;90.10;;;;;;5056053;28;20214;-92
2022/06/02 07:51:28;;;;;;;11.00;5.60;;;11.50;89.70;;;;;;5056101;28;20184;-91
2022/06/02 07:54:15;;;;;;;10.90;6.00;;;11.60;90.20;;;;;;5054725;28;20225;-91
2022/06/02 07:56:58;;;;;;;9.30;6.47;;;11.50;90.20;;;;;;5055263;28;20200;-92
2022/06/02 07:59:45;;;;;;;9.57;6.13;;;11.50;90.40;;;;;;5054462;28;20172;-92
2022/06/02 08:02:45;;;;;;;12.73;6.73;;;11.50;90.50;;;;;;5054125;28;20168;-91
2022/06/02 08:05:59;;;;;;;8.27;5.87;;;11.60;90.50;;;;;;5054218;28;20168;-92
2022/06/02 08:09:01;;;;;;;11.87;6.20;;;11.60;90.50;;;;;;5010394;28;20570;-92
2022/06/02 08:11:41;;;;;;;11.63;6.30;;;11.80;90.20;;;;;;5054888;28;20230;-91
2022/06/02 08:14:24;;;;;;;14.87;6.53;;;12.00;90.20;;;;;;5056070;28;20186;-92
2022/06/02 08:17:24;;;;;;;16.83;5.47;;;12.40;90.30;;;;;;5055374;28;20661;-90
2022/06/02 08:20:02;;;;;;;8.93;4.70;;;12.50;89.00;;;;;;5012973;28;20204;-92
2022/06/02 08:22:58;;;;;;;9.63;4.47;;;12.50;88.20;;;;;;5054364;28;20183;-92
2022/06/02 08:25:36;;;;;;;9.40;4.03;;;12.70;88.10;;;;;;5056530;28;20172;-92
2022/06/02 08:28:17;;;;;;;8.00;3.70;;;12.80;88.00;;;;;;5054910;28;20266;-91
2022/06/02 08:30:59;;;;;;;8.50;4.33;;;12.80;87.50;;;;;;5056762;28;20171;-91
2022/06/02 08:33:49;;;;;;;6.57;4.07;;;12.70;86.90;;;;;;5055234;28;20222;-90
2022/06/02 08:36:35;;;;;;;5.53;3.70;;;12.60;87.10;;;;;;5053801;28;20689;-90
2022/06/02 08:39:31;;;;;;;6.90;4.57;;;12.40;87.10;;;;;;5052591;28;20258;-90
2022/06/02 08:42:51;;;;;;;10.37;4.40;;;12.30;87.70;;;;;;5052556;28;20176;-90
2022/06/02 08:45:42;;;;;;;10.47;4.20;;;12.20;88.00;;;;;;5048944;28;20275;-89
2022/06/02 08:48:22;;;;;;;13.47;4.13;;;12.20;88.10;;;;;;5053330;28;20202;-91
2022/06/02 08:51:06;;;;;;;12.83;4.50;;;12.30;88.10;;;;;;5053464;28;20175;-91
2022/06/02 08:53:53;;;;;;;9.70;4.50;;;12.30;88.00;;;;;;5054985;28;20171;-92
2022/06/02 08:56:48;;;;;;;7.57;3.70;;;12.30;88.00;;;;;;5053660;28;20283;-91
2022/06/02 08:59:38;;;;;;;10.70;4.93;;;12.30;87.30;;;;;;5053770;28;20176;-91
2022/06/02 09:02:31;;;;;;;6.70;4.07;;;12.30;87.60;;;;;;5052561;28;20262;-90
2022/06/02 09:04:56;;;;;;;7.63;3.83;;;12.30;87.50;;;;;;5038639;28;20188;-88
2022/06/02 09:08:04;;;;;;;7.40;3.60;;;12.30;87.00;;;;;;5053441;28;20192;-88
2022/06/02 09:10:51;;;;;;;9.17;4.13;;;12.30;87.10;;;;;;5025089;28;20662;-89
2022/06/02 09:13:47;;;;;;;8.23;3.57;;;12.40;87.30;;;;;;5055160;28;20183;-90
2022/06/02 09:16:41;;;;;;;7.87;3.80;;;12.60;87.40;;;;;;5052044;28;20264;-89
2022/06/02 09:19:33;;;;;;;9.10;3.33;;;12.60;86.90;;;;;;5053335;28;20191;-90
2022/06/02 09:22:10;;;;;;;8.90;3.57;;;12.60;86.80;;;;;;5053754;28;20172;-90
2022/06/02 09:24:57;;;;;;;8.73;4.60;;;12.50;87.10;;;;;;5052430;28;20182;-91
2022/06/02 09:28:17;;;;;;;9.93;4.00;;;12.50;87.20;;;;;;5052407;28;20222;-90
2022/06/02 09:31:07;;;;;;;10.67;4.43;;;12.40;87.10;;;;;;4976408;28;20240;-91
2022/06/02 09:33:56;;;;;;;7.57;4.10;;;12.40;87.30;;;;;;5051783;28;20226;-90
2022/06/02 09:36:55;;;;;;;9.13;3.50;;;12.50;87.30;;;;;;5058713;28;20202;-91
2022/06/02 09:39:48;;;;;;;10.47;4.13;;;12.70;87.80;;;;;;5058536;28;20168;-92
2022/06/02 09:42:39;;;;;;;7.73;2.80;;;12.90;87.20;;;;;;5056622;28;20184;-92
2022/06/02 09:45:27;;;;;;;5.57;3.10;;;13.00;86.90;;;;;;5056179;28;20226;-91
2022/06/02 09:48:17;;;;;;;5.00;2.83;;;13.10;86.30;;;;;;5057545;28;20246;-91
2022/06/02 09:51:14;;;;;;;10.50;3.40;;;13.00;84.70;;;;;;5058155;28;20168;-90
2022/06/02 09:54:26;;;;;;;8.97;2.57;;;13.10;84.30;;;;;;5056693;28;20234;-86
2022/06/02 10:00:37;;;;;;;10.43;2.90;;;13.20;82.60;;;;;;5057930;28;20692;-86
2022/06/02 10:03:34;;;;;;;11.47;2.50;;;13.10;82.30;;;;;;5056261;28;20187;-86
2022/06/02 10:06:08;;;;;;;10.93;2.43;;;13.20;82.50;;;;;;5057522;28;20164;-86
2022/06/02 10:08:53;;;;;;;7.80;2.63;;;13.30;81.80;;;;;;5056599;28;20534;-86
2022/06/02 10:11:46;;;;;;;5.60;2.50;;;13.50;82.40;;;;;;5057792;28;20172;-87
2022/06/02 10:14:59;;;;;;;7.80;2.63;;;13.80;82.30;;;;;;5058086;28;20171;-87
2022/06/02 10:17:52;;;;;;;6.97;2.80;;;13.90;80.00;;;;;;5038189;28;20211;-87
2022/06/02 10:20:29;;;;;;;10.93;2.60;;;14.10;79.70;;;;;;5055888;28;20204;-85
2022/06/02 10:23:15;;;;;;;10.97;2.47;;;14.00;77.90;;;;;;5057292;28;20214;-86
2022/06/02 10:25:47;;;;;;;10.63;2.67;;;13.90;77.00;;;;;;5055334;28;20172;-85
2022/06/02 10:28:21;;;;;;;8.37;2.67;;;14.10;78.50;;;;;;5056264;28;20179;-87
2022/06/02 10:31:20;;;;;;;7.47;2.23;;;14.60;77.40;;;;;;5056799;28;20182;-87
2022/06/02 10:34:39;;;;;;;8.07;2.70;;;14.80;76.80;;;;;;5057296;28;20180;-86
2022/06/02 10:37:17;;;;;;;9.30;2.53;;;14.70;75.60;;;;;;4995795;28;20202;-86
2022/06/02 10:39:53;;;;;;;2.80;1.77;;;14.40;75.40;;;;;;5055117;28;20689;-86
2022/06/02 10:43:00;;;;;;;11.27;3.47;;;14.30;75.70;;;;;;5055402;28;20584;-86
2022/06/02 10:46:00;;;;;;;6.87;1.90;;;14.30;74.80;;;;;;5056274;28;20156;-85
2022/06/02 10:49:00;;;;;;;5.57;2.20;;;14.00;73.30;;;;;;5054415;28;20192;-85
2022/06/02 10:52:13;;;;;;;6.10;2.20;;;13.90;74.60;;;;;;5055182;28;20306;-86
2022/06/02 10:54:55;;;;;;;6.47;2.50;;;14.00;74.60;;;;;;5032078;28;20552;-85
2022/06/02 10:57:55;;;;;;;6.90;2.67;;;13.90;74.00;;;;;;5054737;28;20248;-85
2022/06/02 11:00:30;;;;;;;7.07;2.70;;;14.10;75.00;;;;;;5053546;28;20204;-89
2022/06/02 11:03:04;;;;;;;11.40;2.20;;;14.30;76.00;;;;;;5053854;28;20266;-86
2022/06/02 11:05:55;;;;;;;13.00;2.27;;;14.50;75.40;;;;;;5053519;28;20167;-85
2022/06/02 11:08:43;;;;;;;5.10;2.27;;;14.50;74.60;;;;;;5054617;28;20164;-85
2022/06/02 11:11:42;;;;;;;7.87;2.17;;;14.70;74.40;;;;;;5053712;28;20705;-85
2022/06/02 11:14:26;;;;;;;9.10;2.50;;;14.80;73.00;;;;;;5053548;28;20668;-85
2022/06/02 11:17:19;;;;;;;4.90;2.40;;;14.50;73.40;;;;;;5054620;28;20225;-85
2022/06/02 11:19:58;;;;;;;6.97;2.47;;;14.50;73.90;;;;;;5053035;28;20357;-85
2022/06/02 11:22:49;;;;;;;6.73;2.33;;;14.50;75.10;;;;;;5053068;28;20172;-85
2022/06/02 11:25:32;;;;;;;6.03;2.47;;;14.50;74.80;;;;;;5053199;28;20200;-86
2022/06/02 11:28:25;;;;;;;4.83;2.10;;;14.40;74.80;;;;;;5054619;28;20282;-85
2022/06/02 11:31:08;;;;;;;7.17;2.47;;;14.20;74.30;;;;;;5053074;28;20180;-86
2022/06/02 11:33:45;;;;;;;11.30;2.80;;;14.20;74.80;;;;;;5054147;28;20246;-85
2022/06/02 11:36:36;;;;;;;9.93;2.60;;;14.40;75.30;;;;;;5052858;28;20294;-85
2022/06/02 11:39:27;;;;;;;7.97;2.37;;;14.70;75.20;;;;;;5054241;28;20171;-85
2022/06/02 11:42:13;;;;;;;7.83;2.50;;;15.00;72.70;;;;;;5054227;28;20160;-84
2022/06/02 11:45:11;;;;;;;6.10;2.33;;;15.30;73.80;;;;;;5052162;28;20184;-84
2022/06/02 11:47:58;;;;;;;5.57;2.13;;;15.10;72.00;;;;;;5015059;28;1095149;-84
2022/06/02 11:50:48;;;;;;;13.10;2.93;;;14.80;71.30;;;;;;5053609;28;20222;-85
2022/06/02 11:53:32;;;;;;;6.27;2.30;;;14.90;73.60;;;;;;5053870;28;20176;-84
2022/06/02 11:56:13;;;;;;;11.32;2.25;;;15.10;73.70;;;;;;5053561;28;20176;-84
2022/06/02 11:58:38;;;;;;;7.13;2.05;;;15.30;72.40;;;;;;5053703;28;20171;-84
2022/06/02 12:01:21;;;;;;;9.80;2.50;;;15.80;72.50;;;;;;5053370;28;20211;-85
2022/06/02 12:04:24;;;;;;;10.93;2.30;;;15.70;69.80;;;;;;5054561;28;20156;-84
2022/06/02 12:07:37;;;;;;;7.82;2.47;;;15.70;71.40;;;;;;5054556;28;20195;-85
2022/06/02 12:10:40;;;;;;;10.55;2.30;;;15.40;71.70;;;;;;5053078;28;20167;-86
2022/06/02 12:13:07;;;;;;;6.63;2.35;;;15.60;72.20;;;;;;5052952;28;20721;-85
2022/06/02 12:16:11;;;;;;;7.78;2.72;;;16.20;73.20;;;;;;5053242;28;20270;-86
2022/06/02 12:18:57;;;;;;;6.70;2.20;;;16.50;71.30;;;;;;5042395;28;20261;-85
2022/06/02 12:21:55;;;;;;;7.78;1.98;;;16.40;68.50;;;;;;5054393;28;20198;-85
2022/06/02 12:24:44;;;;;;;7.65;2.20;;;15.90;70.00;;;;;;5052978;28;20646;-85
2022/06/02 12:27:28;;;;;;;4.10;2.00;;;15.80;70.50;;;;;;5061143;28;20203;-88
2022/06/02 12:30:20;;;;;;;6.45;2.40;;;15.80;70.00;;;;;;5058795;28;20172;-87
2022/06/02 12:33:23;;;;;;;7.60;2.30;;;16.20;71.50;;;;;;5057472;28;20179;-89
2022/06/02 12:36:36;;;;;;;8.38;2.50;;;16.30;70.60;;;;;;5060015;28;20165;-88
2022/06/02 12:39:10;;;;;;;7.15;1.98;;;16.20;68.10;;;;;;5057626;28;20225;-88
2022/06/02 12:42:00;;;;;;;11.50;2.00;;;16.30;69.70;;;;;;5059396;28;20195;-88
2022/06/02 12:44:53;;;;;;;4.32;1.75;;;16.60;68.60;;;;;;5057467;28;20171;-88
2022/06/02 12:47:25;;;;;;;9.52;2.25;;;16.60;68.40;;;;;;5057918;28;20294;-88
2022/06/02 12:50:00;;;;;;;8.68;2.45;;;16.90;69.70;;;;;;5056811;28;20175;-87
2022/06/02 12:52:55;;;;;;;10.45;2.50;;;17.20;68.20;;;;;;5058001;28;20164;-90
2022/06/02 12:55:52;;;;;;;9.95;3.40;;;17.10;67.00;;;;;;5056496;28;20164;-87
2022/06/02 12:59:01;;;;;;;7.32;2.35;;;17.10;68.40;;;;;;5055852;28;20170;-87
2022/06/02 13:02:05;;;;;;;6.50;2.15;;;17.10;69.90;;;;;;5037412;28;20224;-86
2022/06/02 13:04:54;;;;;;;9.95;2.58;;;17.30;69.00;;;;;;5055128;28;20257;-87
2022/06/02 13:07:45;;;;;;;8.80;2.58;;;16.80;66.50;;;;;;5054719;28;20276;-87
2022/06/02 13:10:45;;;;;;;6.10;2.22;;;16.80;68.40;;;;;;5055422;28;20172;-87
2022/06/02 13:13:30;;;;;;;8.98;2.95;;;17.20;68.40;;;;;;5056381;28;20156;-87
2022/06/02 13:16:17;;;;;;;9.63;2.03;;;17.70;67.00;;;;;;5054782;28;20172;-86
2022/06/02 13:19:01;;;;;;;6.15;1.85;;;17.80;63.90;;;;;;5056152;28;20159;-86
2022/06/02 13:21:48;;;;;;;7.22;2.20;;;17.60;64.90;;;;;;5054555;28;20203;-86
2022/06/02 13:24:38;;;;;;;9.02;2.38;;;17.80;63.80;;;;;;5056353;28;20156;-85
2022/06/02 13:27:13;;;;;;;11.65;2.50;;;17.30;64.30;;;;;;5055517;28;20280;-85
2022/06/02 13:30:11;;;;;;;4.55;1.80;;;17.20;66.20;;;;;;5055514;28;20630;-85
2022/06/02 13:32:45;;;;;;;5.93;1.77;;;17.70;65.50;;;;;;5053584;28;20676;-86
2022/06/02 13:35:44;;;;;;;7.90;2.10;;;18.10;64.20;;;;;;5055293;28;20159;-87
2022/06/02 13:38:21;;;;;;;3.95;1.73;;;17.90;63.50;;;;;;5021048;28;20214;-85
2022/06/02 13:41:08;;;;;;;8.98;2.10;;;17.90;63.00;;;;;;5054058;28;20199;-85
2022/06/02 13:44:05;;;;;;;4.85;2.03;;;17.80;64.80;;;;;;5054162;28;20167;-85
2022/06/02 13:46:58;;;;;;;7.30;2.10;;;17.60;65.90;;;;;;5054808;28;20720;-86
2022/06/02 13:50:01;;;;;;;6.88;1.88;;;18.30;65.30;;;;;;5053232;28;20175;-85
2022/06/02 13:53:05;;;;;;;9.18;1.70;;;18.50;63.90;;;;;;5054787;28;20175;-85
2022/06/02 13:58:39;;;;;;;8.90;2.17;;;18.60;63.00;;;;;;5054524;28;20167;-85
2022/06/02 14:01:23;;;;;;;8.02;1.75;;;18.60;63.40;;;;;;5052631;28;20199;-85
2022/06/02 14:04:21;;;;;;;9.43;2.13;;;18.00;62.50;;;;;;5052197;28;20164;-85
2022/06/02 14:06:53;;;;;;;11.13;2.80;;;18.50;64.50;;;;;;5052309;28;20246;-85
2022/06/02 14:09:52;;;;;;;7.43;2.10;;;18.90;60.80;;;;;;5052315;28;20649;-85
2022/06/02 14:12:33;;;;;;;5.93;2.42;;;18.50;63.20;;;;;;5053732;28;20225;-85
2022/06/02 14:15:09;;;;;;;4.80;1.90;;;19.00;62.10;;;;;;5053602;28;20160;-85
2022/06/02 14:18:09;;;;;;;7.38;2.05;;;18.70;62.50;;;;;;5051734;28;20195;-85
2022/06/02 14:21:08;;;;;;;5.22;1.77;;;18.00;60.10;;;;;;5039134;28;20207;-84
2022/06/02 14:23:50;;;;;;;5.05;1.80;;;18.30;57.50;;;;;;5057171;28;20155;-85
2022/06/02 14:26:35;;;;;;;5.53;1.55;;;18.20;60.50;;;;;;5055525;28;20704;-85
2022/06/02 14:29:22;;;;;;;9.18;2.30;;;18.50;58.90;;;;;;5057298;28;20156;-85
2022/06/02 14:32:01;;;;;;;5.40;1.83;;;18.50;60.00;;;;;;5055421;28;20630;-85
2022/06/02 14:34:48;;;;;;;4.55;1.70;;;18.90;60.60;;;;;;5056773;28;20175;-88
2022/06/02 14:37:31;;;;;;;4.43;1.80;;;18.90;57.50;;;;;;5055635;28;20188;-86
2022/06/02 14:40:07;;;;;;;8.95;2.00;;;18.90;60.50;;;;;;5055030;28;20196;-86